sensor_id;sensor_type;location;lat;lon;timestamp;temperature;humidity
72440;DHT22;60446;50.752;4.352;2023-04-15T00:01:00;7.50;76.30
72440;DHT22;60446;50.752;4.352;2023-04-15T00:03:28;7.60;75.90
72440;DHT22;60446;50.752;4.352;2023-04-15T00:05:57;7.70;75.30
72440;DHT22;60446;50.752;4.352;2023-04-15T00:08:24;7.70;75.50
72440;DHT22;60446;50.752;4.352;2023-04-15T00:10:52;7.70;76.10
72440;DHT22;60446;50.752;4.352;2023-04-15T00:13:19;7.70;75.80
72440;DHT22;60446;50.752;4.352;2023-04-15T00:15:46;7.70;75.80
72440;DHT22;60446;50.752;4.352;2023-04-15T00:18:13;7.70;76.10
72440;DHT22;60446;50.752;4.352;2023-04-15T00:20:40;7.70;76.50
72440;DHT22;60446;50.752;4.352;2023-04-15T00:23:08;7.70;76.90
72440;DHT22;60446;50.752;4.352;2023-04-15T00:25:35;7.70;76.70
72440;DHT22;60446;50.752;4.352;2023-04-15T00:28:02;7.70;76.80
72440;DHT22;60446;50.752;4.352;2023-04-15T00:30:30;7.70;76.90
72440;DHT22;60446;50.752;4.352;2023-04-15T00:32:57;7.70;77.30
72440;DHT22;60446;50.752;4.352;2023-04-15T00:35:24;7.70;77.30
72440;DHT22;60446;50.752;4.352;2023-04-15T00:37:52;7.70;77.50
72440;DHT22;60446;50.752;4.352;2023-04-15T00:40:20;7.70;77.20
72440;DHT22;60446;50.752;4.352;2023-04-15T00:42:50;7.70;77.40
72440;DHT22;60446;50.752;4.352;2023-04-15T00:45:18;7.70;77.60
72440;DHT22;60446;50.752;4.352;2023-04-15T00:47:45;7.60;77.80
72440;DHT22;60446;50.752;4.352;2023-04-15T00:50:12;7.50;78.30
72440;DHT22;60446;50.752;4.352;2023-04-15T00:52:40;7.60;78.70
72440;DHT22;60446;50.752;4.352;2023-04-15T00:55:08;7.60;79.70
72440;DHT22;60446;50.752;4.352;2023-04-15T00:57:36;7.60;79.50
72440;DHT22;60446;50.752;4.352;2023-04-15T01:00:03;7.50;79.50
72440;DHT22;60446;50.752;4.352;2023-04-15T01:02:38;7.60;79.00
72440;DHT22;60446;50.752;4.352;2023-04-15T01:05:05;7.60;79.20
72440;DHT22;60446;50.752;4.352;2023-04-15T01:07:34;7.60;80.80
72440;DHT22;60446;50.752;4.352;2023-04-15T01:10:03;7.70;80.40
72440;DHT22;60446;50.752;4.352;2023-04-15T01:12:31;7.70;80.20
72440;DHT22;60446;50.752;4.352;2023-04-15T01:15:00;7.60;80.90
72440;DHT22;60446;50.752;4.352;2023-04-15T01:17:28;7.70;80.90
72440;DHT22;60446;50.752;4.352;2023-04-15T01:19:56;7.70;80.60
72440;DHT22;60446;50.752;4.352;2023-04-15T01:22:26;7.60;80.80
72440;DHT22;60446;50.752;4.352;2023-04-15T01:25:00;7.60;81.30
72440;DHT22;60446;50.752;4.352;2023-04-15T01:27:30;7.60;81.90
72440;DHT22;60446;50.752;4.352;2023-04-15T01:29:57;7.60;82.60
72440;DHT22;60446;50.752;4.352;2023-04-15T01:32:25;7.60;81.80
72440;DHT22;60446;50.752;4.352;2023-04-15T01:34:52;7.60;81.10
72440;DHT22;60446;50.752;4.352;2023-04-15T01:37:23;7.50;77.80
72440;DHT22;60446;50.752;4.352;2023-04-15T01:39:51;7.60;80.00
72440;DHT22;60446;50.752;4.352;2023-04-15T01:42:18;7.70;80.30
72440;DHT22;60446;50.752;4.352;2023-04-15T01:44:45;7.70;79.90
72440;DHT22;60446;50.752;4.352;2023-04-15T01:47:12;7.80;80.30
72440;DHT22;60446;50.752;4.352;2023-04-15T01:49:40;7.70;80.80
72440;DHT22;60446;50.752;4.352;2023-04-15T01:52:07;7.70;81.70
72440;DHT22;60446;50.752;4.352;2023-04-15T01:54:34;7.70;81.90
72440;DHT22;60446;50.752;4.352;2023-04-15T01:57:02;7.70;82.20
72440;DHT22;60446;50.752;4.352;2023-04-15T01:59:29;7.70;82.20
72440;DHT22;60446;50.752;4.352;2023-04-15T02:01:58;7.70;82.10
72440;DHT22;60446;50.752;4.352;2023-04-15T02:04:26;7.70;82.00
72440;DHT22;60446;50.752;4.352;2023-04-15T02:06:53;7.70;82.00
72440;DHT22;60446;50.752;4.352;2023-04-15T02:09:21;7.60;82.40
72440;DHT22;60446;50.752;4.352;2023-04-15T02:11:49;7.60;82.80
72440;DHT22;60446;50.752;4.352;2023-04-15T02:14:17;7.60;83.00
72440;DHT22;60446;50.752;4.352;2023-04-15T02:16:44;7.60;83.00
72440;DHT22;60446;50.752;4.352;2023-04-15T02:19:14;7.60;82.80
72440;DHT22;60446;50.752;4.352;2023-04-15T02:21:41;7.60;82.60
72440;DHT22;60446;50.752;4.352;2023-04-15T02:24:08;7.60;81.60
72440;DHT22;60446;50.752;4.352;2023-04-15T02:26:35;7.70;81.20
72440;DHT22;60446;50.752;4.352;2023-04-15T02:29:02;7.70;81.10
72440;DHT22;60446;50.752;4.352;2023-04-15T02:31:29;7.70;81.30
72440;DHT22;60446;50.752;4.352;2023-04-15T02:33:59;7.80;81.00
72440;DHT22;60446;50.752;4.352;2023-04-15T02:36:30;7.80;80.90
72440;DHT22;60446;50.752;4.352;2023-04-15T02:38:57;7.60;80.70
72440;DHT22;60446;50.752;4.352;2023-04-15T02:41:26;7.50;81.00
72440;DHT22;60446;50.752;4.352;2023-04-15T02:43:56;7.60;80.60
72440;DHT22;60446;50.752;4.352;2023-04-15T02:46:23;7.50;80.20
72440;DHT22;60446;50.752;4.352;2023-04-15T02:48:50;7.50;80.70
72440;DHT22;60446;50.752;4.352;2023-04-15T02:51:21;7.60;81.10
72440;DHT22;60446;50.752;4.352;2023-04-15T02:53:49;7.70;80.90
72440;DHT22;60446;50.752;4.352;2023-04-15T02:56:16;7.70;80.20
72440;DHT22;60446;50.752;4.352;2023-04-15T02:58:45;7.70;80.40
72440;DHT22;60446;50.752;4.352;2023-04-15T03:01:12;7.60;80.30
72440;DHT22;60446;50.752;4.352;2023-04-15T03:03:40;7.60;79.90
72440;DHT22;60446;50.752;4.352;2023-04-15T03:06:08;7.60;79.80
72440;DHT22;60446;50.752;4.352;2023-04-15T03:08:35;7.60;79.80
72440;DHT22;60446;50.752;4.352;2023-04-15T03:11:03;7.60;80.20
72440;DHT22;60446;50.752;4.352;2023-04-15T03:13:32;7.70;79.70
72440;DHT22;60446;50.752;4.352;2023-04-15T03:16:06;7.60;79.70
72440;DHT22;60446;50.752;4.352;2023-04-15T03:18:33;7.70;80.20
72440;DHT22;60446;50.752;4.352;2023-04-15T03:21:02;7.60;80.10
72440;DHT22;60446;50.752;4.352;2023-04-15T03:23:33;7.70;80.40
72440;DHT22;60446;50.752;4.352;2023-04-15T03:26:02;7.60;80.20
72440;DHT22;60446;50.752;4.352;2023-04-15T03:28:31;7.60;80.60
72440;DHT22;60446;50.752;4.352;2023-04-15T03:30:59;7.60;79.90
72440;DHT22;60446;50.752;4.352;2023-04-15T03:33:27;7.60;80.20
72440;DHT22;60446;50.752;4.352;2023-04-15T03:35:54;7.60;80.60
72440;DHT22;60446;50.752;4.352;2023-04-15T03:38:21;7.60;80.60
72440;DHT22;60446;50.752;4.352;2023-04-15T03:40:48;7.60;81.90
72440;DHT22;60446;50.752;4.352;2023-04-15T03:43:15;7.60;81.70
72440;DHT22;60446;50.752;4.352;2023-04-15T03:45:42;7.50;81.80
72440;DHT22;60446;50.752;4.352;2023-04-15T03:48:09;7.50;82.20
72440;DHT22;60446;50.752;4.352;2023-04-15T03:50:44;7.50;82.20
72440;DHT22;60446;50.752;4.352;2023-04-15T03:53:11;7.50;82.70
72440;DHT22;60446;50.752;4.352;2023-04-15T03:55:38;7.50;82.80
72440;DHT22;60446;50.752;4.352;2023-04-15T03:58:06;7.60;82.40
72440;DHT22;60446;50.752;4.352;2023-04-15T04:00:33;7.60;82.20
72440;DHT22;60446;50.752;4.352;2023-04-15T04:03:00;7.70;81.50
72440;DHT22;60446;50.752;4.352;2023-04-15T04:05:27;7.70;81.60
72440;DHT22;60446;50.752;4.352;2023-04-15T04:07:54;7.70;81.40
72440;DHT22;60446;50.752;4.352;2023-04-15T04:10:22;7.70;81.20
72440;DHT22;60446;50.752;4.352;2023-04-15T04:12:49;7.70;81.20
72440;DHT22;60446;50.752;4.352;2023-04-15T04:15:16;7.60;81.70
72440;DHT22;60446;50.752;4.352;2023-04-15T04:17:43;7.70;81.80
72440;DHT22;60446;50.752;4.352;2023-04-15T04:20:10;7.70;81.80
72440;DHT22;60446;50.752;4.352;2023-04-15T04:22:38;7.70;82.00
72440;DHT22;60446;50.752;4.352;2023-04-15T04:25:07;7.70;81.00
72440;DHT22;60446;50.752;4.352;2023-04-15T04:27:36;7.70;80.10
72440;DHT22;60446;50.752;4.352;2023-04-15T04:30:04;7.70;79.80
72440;DHT22;60446;50.752;4.352;2023-04-15T04:32:32;7.70;79.60
72440;DHT22;60446;50.752;4.352;2023-04-15T04:34:59;7.70;79.60
72440;DHT22;60446;50.752;4.352;2023-04-15T04:37:26;7.70;80.20
72440;DHT22;60446;50.752;4.352;2023-04-15T04:39:53;7.70;79.40
72440;DHT22;60446;50.752;4.352;2023-04-15T04:42:21;7.60;79.20
72440;DHT22;60446;50.752;4.352;2023-04-15T04:44:48;7.60;79.30
72440;DHT22;60446;50.752;4.352;2023-04-15T04:47:15;7.50;79.10
72440;DHT22;60446;50.752;4.352;2023-04-15T04:49:42;7.60;78.70
72440;DHT22;60446;50.752;4.352;2023-04-15T04:52:09;7.60;78.50
72440;DHT22;60446;50.752;4.352;2023-04-15T04:54:37;7.50;78.70
72440;DHT22;60446;50.752;4.352;2023-04-15T04:57:04;7.50;78.60
72440;DHT22;60446;50.752;4.352;2023-04-15T04:59:33;7.50;79.60
72440;DHT22;60446;50.752;4.352;2023-04-15T05:02:00;7.60;81.60
72440;DHT22;60446;50.752;4.352;2023-04-15T05:04:28;7.70;81.80
72440;DHT22;60446;50.752;4.352;2023-04-15T05:06:57;7.60;81.20
72440;DHT22;60446;50.752;4.352;2023-04-15T05:09:25;7.60;80.60
72440;DHT22;60446;50.752;4.352;2023-04-15T05:11:53;7.70;80.20
72440;DHT22;60446;50.752;4.352;2023-04-15T05:14:20;7.70;80.40
72440;DHT22;60446;50.752;4.352;2023-04-15T05:16:49;7.70;81.00
72440;DHT22;60446;50.752;4.352;2023-04-15T05:19:16;7.80;81.30
72440;DHT22;60446;50.752;4.352;2023-04-15T05:21:43;7.70;81.60
72440;DHT22;60446;50.752;4.352;2023-04-15T05:24:10;7.70;81.40
72440;DHT22;60446;50.752;4.352;2023-04-15T05:26:37;7.70;81.40
72440;DHT22;60446;50.752;4.352;2023-04-15T05:29:04;7.70;82.10
72440;DHT22;60446;50.752;4.352;2023-04-15T05:31:31;7.60;82.10
72440;DHT22;60446;50.752;4.352;2023-04-15T05:33:58;7.50;81.10
72440;DHT22;60446;50.752;4.352;2023-04-15T05:36:25;7.50;81.70
72440;DHT22;60446;50.752;4.352;2023-04-15T05:38:54;7.60;82.10
72440;DHT22;60446;50.752;4.352;2023-04-15T05:41:21;7.60;82.90
72440;DHT22;60446;50.752;4.352;2023-04-15T05:43:48;7.70;82.70
72440;DHT22;60446;50.752;4.352;2023-04-15T05:46:16;7.70;82.50
72440;DHT22;60446;50.752;4.352;2023-04-15T05:48:43;7.80;82.20
72440;DHT22;60446;50.752;4.352;2023-04-15T05:51:10;7.80;81.90
72440;DHT22;60446;50.752;4.352;2023-04-15T05:53:37;7.90;82.30
72440;DHT22;60446;50.752;4.352;2023-04-15T05:56:04;7.90;81.80
72440;DHT22;60446;50.752;4.352;2023-04-15T05:58:32;7.90;81.50
72440;DHT22;60446;50.752;4.352;2023-04-15T06:00:59;7.90;81.30
72440;DHT22;60446;50.752;4.352;2023-04-15T06:03:26;7.90;81.50
72440;DHT22;60446;50.752;4.352;2023-04-15T06:05:54;8.00;80.90
72440;DHT22;60446;50.752;4.352;2023-04-15T06:08:21;8.00;81.20
72440;DHT22;60446;50.752;4.352;2023-04-15T06:10:48;8.00;80.40
72440;DHT22;60446;50.752;4.352;2023-04-15T06:13:15;8.10;79.90
72440;DHT22;60446;50.752;4.352;2023-04-15T06:15:42;8.20;77.90
72440;DHT22;60446;50.752;4.352;2023-04-15T06:18:10;8.10;78.80
72440;DHT22;60446;50.752;4.352;2023-04-15T06:20:37;8.20;76.90
72440;DHT22;60446;50.752;4.352;2023-04-15T06:23:07;8.10;77.20
72440;DHT22;60446;50.752;4.352;2023-04-15T06:25:34;8.20;78.80
72440;DHT22;60446;50.752;4.352;2023-04-15T06:28:01;8.30;78.30
72440;DHT22;60446;50.752;4.352;2023-04-15T06:30:28;8.30;77.60
72440;DHT22;60446;50.752;4.352;2023-04-15T06:32:55;8.30;77.30
72440;DHT22;60446;50.752;4.352;2023-04-15T06:35:22;8.40;77.00
72440;DHT22;60446;50.752;4.352;2023-04-15T06:37:49;8.40;76.90
72440;DHT22;60446;50.752;4.352;2023-04-15T06:40:17;8.40;76.30
72440;DHT22;60446;50.752;4.352;2023-04-15T06:42:44;8.60;78.10
72440;DHT22;60446;50.752;4.352;2023-04-15T06:45:11;8.70;77.70
72440;DHT22;60446;50.752;4.352;2023-04-15T06:47:38;8.70;75.80
72440;DHT22;60446;50.752;4.352;2023-04-15T06:50:06;8.90;75.00
72440;DHT22;60446;50.752;4.352;2023-04-15T06:52:35;8.90;75.60
72440;DHT22;60446;50.752;4.352;2023-04-15T06:55:02;9.00;75.80
72440;DHT22;60446;50.752;4.352;2023-04-15T06:57:29;9.00;75.20
72440;DHT22;60446;50.752;4.352;2023-04-15T07:00:00;9.20;75.70
72440;DHT22;60446;50.752;4.352;2023-04-15T07:02:27;9.20;75.30
72440;DHT22;60446;50.752;4.352;2023-04-15T07:04:54;9.20;76.10
72440;DHT22;60446;50.752;4.352;2023-04-15T07:07:22;9.30;76.20
72440;DHT22;60446;50.752;4.352;2023-04-15T07:09:49;9.30;76.10
72440;DHT22;60446;50.752;4.352;2023-04-15T07:12:17;9.40;74.70
72440;DHT22;60446;50.752;4.352;2023-04-15T07:14:44;9.40;74.60
72440;DHT22;60446;50.752;4.352;2023-04-15T07:17:11;9.30;73.20
72440;DHT22;60446;50.752;4.352;2023-04-15T07:19:39;9.30;74.70
72440;DHT22;60446;50.752;4.352;2023-04-15T07:22:06;9.20;74.50
72440;DHT22;60446;50.752;4.352;2023-04-15T07:24:33;9.20;76.00
72440;DHT22;60446;50.752;4.352;2023-04-15T07:27:00;9.40;77.20
72440;DHT22;60446;50.752;4.352;2023-04-15T07:29:27;9.50;71.60
72440;DHT22;60446;50.752;4.352;2023-04-15T07:31:54;9.60;68.20
72440;DHT22;60446;50.752;4.352;2023-04-15T07:34:22;9.60;69.40
72440;DHT22;60446;50.752;4.352;2023-04-15T07:36:50;9.70;69.00
72440;DHT22;60446;50.752;4.352;2023-04-15T07:39:18;9.70;66.50
72440;DHT22;60446;50.752;4.352;2023-04-15T07:41:45;9.70;67.70
72440;DHT22;60446;50.752;4.352;2023-04-15T07:44:13;9.70;67.70
72440;DHT22;60446;50.752;4.352;2023-04-15T07:46:40;9.80;69.30
72440;DHT22;60446;50.752;4.352;2023-04-15T07:49:08;9.90;66.40
72440;DHT22;60446;50.752;4.352;2023-04-15T07:51:35;9.90;67.00
72440;DHT22;60446;50.752;4.352;2023-04-15T07:54:03;9.90;66.00
72440;DHT22;60446;50.752;4.352;2023-04-15T07:56:30;10.10;67.40
72440;DHT22;60446;50.752;4.352;2023-04-15T07:58:58;10.20;65.20
72440;DHT22;60446;50.752;4.352;2023-04-15T08:01:29;10.10;62.90
72440;DHT22;60446;50.752;4.352;2023-04-15T08:03:58;10.20;63.00
72440;DHT22;60446;50.752;4.352;2023-04-15T08:06:26;10.20;63.00
72440;DHT22;60446;50.752;4.352;2023-04-15T08:08:54;10.10;63.80
72440;DHT22;60446;50.752;4.352;2023-04-15T08:11:21;10.00;64.80
72440;DHT22;60446;50.752;4.352;2023-04-15T08:13:51;9.90;65.10
72440;DHT22;60446;50.752;4.352;2023-04-15T08:16:23;10.00;66.20
72440;DHT22;60446;50.752;4.352;2023-04-15T08:18:51;9.90;66.50
72440;DHT22;60446;50.752;4.352;2023-04-15T08:21:19;9.80;66.40
72440;DHT22;60446;50.752;4.352;2023-04-15T08:23:49;9.80;66.50
72440;DHT22;60446;50.752;4.352;2023-04-15T08:26:18;9.80;66.60
72440;DHT22;60446;50.752;4.352;2023-04-15T08:28:47;9.90;67.30
72440;DHT22;60446;50.752;4.352;2023-04-15T08:31:16;10.00;66.40
72440;DHT22;60446;50.752;4.352;2023-04-15T08:33:50;10.10;63.60
72440;DHT22;60446;50.752;4.352;2023-04-15T08:36:23;10.20;62.00
72440;DHT22;60446;50.752;4.352;2023-04-15T08:39:01;10.20;63.40
72440;DHT22;60446;50.752;4.352;2023-04-15T08:44:08;10.50;60.80
72440;DHT22;60446;50.752;4.352;2023-04-15T08:46:36;10.50;61.30
72440;DHT22;60446;50.752;4.352;2023-04-15T08:49:06;10.60;60.00
72440;DHT22;60446;50.752;4.352;2023-04-15T08:51:37;10.60;61.60
72440;DHT22;60446;50.752;4.352;2023-04-15T08:54:07;10.70;61.00
72440;DHT22;60446;50.752;4.352;2023-04-15T08:56:40;10.80;63.80
72440;DHT22;60446;50.752;4.352;2023-04-15T08:59:08;10.90;61.30
72440;DHT22;60446;50.752;4.352;2023-04-15T09:01:37;11.10;60.10
72440;DHT22;60446;50.752;4.352;2023-04-15T09:04:05;11.20;59.10
72440;DHT22;60446;50.752;4.352;2023-04-15T09:06:35;11.40;60.00
72440;DHT22;60446;50.752;4.352;2023-04-15T09:09:02;11.50;60.20
72440;DHT22;60446;50.752;4.352;2023-04-15T09:11:29;11.60;61.30
72440;DHT22;60446;50.752;4.352;2023-04-15T09:13:57;11.70;58.70
72440;DHT22;60446;50.752;4.352;2023-04-15T09:16:24;11.80;59.40
72440;DHT22;60446;50.752;4.352;2023-04-15T09:18:53;12.00;57.50
72440;DHT22;60446;50.752;4.352;2023-04-15T09:21:22;12.00;57.30
72440;DHT22;60446;50.752;4.352;2023-04-15T09:23:55;11.90;57.40
72440;DHT22;60446;50.752;4.352;2023-04-15T09:26:35;12.10;57.80
72440;DHT22;60446;50.752;4.352;2023-04-15T09:29:08;12.20;57.90
72440;DHT22;60446;50.752;4.352;2023-04-15T09:31:40;12.20;56.60
72440;DHT22;60446;50.752;4.352;2023-04-15T09:34:08;12.20;57.90
72440;DHT22;60446;50.752;4.352;2023-04-15T09:39:16;12.20;57.50
72440;DHT22;60446;50.752;4.352;2023-04-15T09:41:43;12.20;56.00
72440;DHT22;60446;50.752;4.352;2023-04-15T09:44:23;12.20;57.40
72440;DHT22;60446;50.752;4.352;2023-04-15T09:46:51;12.30;60.40
72440;DHT22;60446;50.752;4.352;2023-04-15T09:49:21;12.50;57.30
72440;DHT22;60446;50.752;4.352;2023-04-15T09:51:49;12.70;55.60
72440;DHT22;60446;50.752;4.352;2023-04-15T09:54:37;12.80;55.30
72440;DHT22;60446;50.752;4.352;2023-04-15T09:57:08;12.90;55.00
72440;DHT22;60446;50.752;4.352;2023-04-15T09:59:47;13.00;50.30
72440;DHT22;60446;50.752;4.352;2023-04-15T10:02:18;13.10;51.30
72440;DHT22;60446;50.752;4.352;2023-04-15T10:05:03;13.20;50.20
72440;DHT22;60446;50.752;4.352;2023-04-15T10:08:03;13.20;52.80
72440;DHT22;60446;50.752;4.352;2023-04-15T10:10:36;13.20;49.60
72440;DHT22;60446;50.752;4.352;2023-04-15T10:13:05;13.20;49.60
72440;DHT22;60446;50.752;4.352;2023-04-15T10:15:55;13.20;51.20
72440;DHT22;60446;50.752;4.352;2023-04-15T10:18:28;13.30;50.10
72440;DHT22;60446;50.752;4.352;2023-04-15T10:21:07;13.20;52.20
72440;DHT22;60446;50.752;4.352;2023-04-15T10:23:39;13.40;54.10
72440;DHT22;60446;50.752;4.352;2023-04-15T10:26:15;13.50;53.00
72440;DHT22;60446;50.752;4.352;2023-04-15T10:28:47;13.50;51.60
72440;DHT22;60446;50.752;4.352;2023-04-15T10:31:18;13.40;52.80
72440;DHT22;60446;50.752;4.352;2023-04-15T10:33:51;13.30;52.30
72440;DHT22;60446;50.752;4.352;2023-04-15T10:36:19;13.30;54.20
72440;DHT22;60446;50.752;4.352;2023-04-15T10:38:47;13.50;54.80
72440;DHT22;60446;50.752;4.352;2023-04-15T10:41:26;13.50;51.80
72440;DHT22;60446;50.752;4.352;2023-04-15T10:44:04;13.50;49.90
72440;DHT22;60446;50.752;4.352;2023-04-15T10:46:43;13.50;49.20
72440;DHT22;60446;50.752;4.352;2023-04-15T10:49:23;13.50;48.60
72440;DHT22;60446;50.752;4.352;2023-04-15T10:51:56;13.50;48.10
72440;DHT22;60446;50.752;4.352;2023-04-15T10:57:12;13.50;48.20
72440;DHT22;60446;50.752;4.352;2023-04-15T11:05:48;13.90;49.60
72440;DHT22;60446;50.752;4.352;2023-04-15T11:08:19;14.00;50.30
72440;DHT22;60446;50.752;4.352;2023-04-15T11:10:54;14.00;48.80
72440;DHT22;60446;50.752;4.352;2023-04-15T11:13:22;14.00;47.40
72440;DHT22;60446;50.752;4.352;2023-04-15T11:15:56;14.00;47.90
72440;DHT22;60446;50.752;4.352;2023-04-15T11:18:38;14.00;47.40
72440;DHT22;60446;50.752;4.352;2023-04-15T11:21:09;14.00;51.30
72440;DHT22;60446;50.752;4.352;2023-04-15T11:23:41;14.10;49.40
72440;DHT22;60446;50.752;4.352;2023-04-15T11:26:17;14.10;47.20
72440;DHT22;60446;50.752;4.352;2023-04-15T11:28:45;14.00;46.40
72440;DHT22;60446;50.752;4.352;2023-04-15T11:31:16;14.20;50.50
72440;DHT22;60446;50.752;4.352;2023-04-15T11:33:58;14.30;45.20
72440;DHT22;60446;50.752;4.352;2023-04-15T11:36:30;14.30;46.30
72440;DHT22;60446;50.752;4.352;2023-04-15T11:39:24;14.40;40.90
72440;DHT22;60446;50.752;4.352;2023-04-15T11:41:51;14.30;35.20
72440;DHT22;60446;50.752;4.352;2023-04-15T11:44:21;14.20;40.70
72440;DHT22;60446;50.752;4.352;2023-04-15T11:46:53;14.30;38.70
72440;DHT22;60446;50.752;4.352;2023-04-15T11:49:32;14.40;39.70
72440;DHT22;60446;50.752;4.352;2023-04-15T11:52:10;14.50;40.30
72440;DHT22;60446;50.752;4.352;2023-04-15T11:54:40;14.40;40.00
72440;DHT22;60446;50.752;4.352;2023-04-15T11:57:07;14.30;39.90
72440;DHT22;60446;50.752;4.352;2023-04-15T11:59:42;14.40;40.90
72440;DHT22;60446;50.752;4.352;2023-04-15T12:02:15;14.30;42.00
72440;DHT22;60446;50.752;4.352;2023-04-15T12:04:42;14.30;43.60
72440;DHT22;60446;50.752;4.352;2023-04-15T12:07:19;14.40;44.30
72440;DHT22;60446;50.752;4.352;2023-04-15T12:09:54;14.50;44.40
72440;DHT22;60446;50.752;4.352;2023-04-15T12:12:28;14.60;42.60
72440;DHT22;60446;50.752;4.352;2023-04-15T12:14:57;14.60;38.40
72440;DHT22;60446;50.752;4.352;2023-04-15T12:17:25;14.60;36.40
72440;DHT22;60446;50.752;4.352;2023-04-15T12:19:55;14.60;35.90
72440;DHT22;60446;50.752;4.352;2023-04-15T12:22:24;14.50;37.40
72440;DHT22;60446;50.752;4.352;2023-04-15T12:24:54;14.60;38.90
72440;DHT22;60446;50.752;4.352;2023-04-15T12:27:25;14.60;41.00
72440;DHT22;60446;50.752;4.352;2023-04-15T12:30:04;14.80;41.70
72440;DHT22;60446;50.752;4.352;2023-04-15T12:32:37;14.80;40.70
72440;DHT22;60446;50.752;4.352;2023-04-15T12:35:09;14.90;40.70
72440;DHT22;60446;50.752;4.352;2023-04-15T12:37:36;15.10;40.70
72440;DHT22;60446;50.752;4.352;2023-04-15T12:40:07;15.20;41.60
72440;DHT22;60446;50.752;4.352;2023-04-15T12:42:37;15.10;41.10
72440;DHT22;60446;50.752;4.352;2023-04-15T12:45:09;15.10;40.10
72440;DHT22;60446;50.752;4.352;2023-04-15T12:47:40;15.00;40.00
72440;DHT22;60446;50.752;4.352;2023-04-15T12:50:15;14.90;39.10
72440;DHT22;60446;50.752;4.352;2023-04-15T12:52:45;14.90;38.20
72440;DHT22;60446;50.752;4.352;2023-04-15T12:55:15;14.90;41.00
72440;DHT22;60446;50.752;4.352;2023-04-15T12:57:47;15.10;39.70
72440;DHT22;60446;50.752;4.352;2023-04-15T13:00:19;14.90;36.80
72440;DHT22;60446;50.752;4.352;2023-04-15T13:02:49;14.90;36.00
72440;DHT22;60446;50.752;4.352;2023-04-15T13:05:17;14.90;37.40
72440;DHT22;60446;50.752;4.352;2023-04-15T13:07:48;14.90;37.20
72440;DHT22;60446;50.752;4.352;2023-04-15T13:10:19;15.00;36.50
72440;DHT22;60446;50.752;4.352;2023-04-15T13:12:53;14.90;36.20
72440;DHT22;60446;50.752;4.352;2023-04-15T13:15:30;14.70;35.20
72440;DHT22;60446;50.752;4.352;2023-04-15T13:17:58;14.80;35.80
72440;DHT22;60446;50.752;4.352;2023-04-15T13:20:25;15.00;35.70
72440;DHT22;60446;50.752;4.352;2023-04-15T13:22:53;15.00;35.60
72440;DHT22;60446;50.752;4.352;2023-04-15T13:25:22;15.10;37.90
72440;DHT22;60446;50.752;4.352;2023-04-15T13:27:52;15.20;37.50
72440;DHT22;60446;50.752;4.352;2023-04-15T13:30:20;15.20;36.70
72440;DHT22;60446;50.752;4.352;2023-04-15T13:32:53;15.30;37.50
72440;DHT22;60446;50.752;4.352;2023-04-15T13:35:23;15.30;37.10
72440;DHT22;60446;50.752;4.352;2023-04-15T13:37:57;15.30;36.90
72440;DHT22;60446;50.752;4.352;2023-04-15T13:40:25;15.20;38.00
72440;DHT22;60446;50.752;4.352;2023-04-15T13:42:55;15.30;37.80
72440;DHT22;60446;50.752;4.352;2023-04-15T13:45:23;15.10;39.00
72440;DHT22;60446;50.752;4.352;2023-04-15T13:47:54;15.10;39.20
72440;DHT22;60446;50.752;4.352;2023-04-15T13:50:27;15.20;39.70
72440;DHT22;60446;50.752;4.352;2023-04-15T13:52:57;15.20;39.40
72440;DHT22;60446;50.752;4.352;2023-04-15T13:55:28;15.10;40.30
72440;DHT22;60446;50.752;4.352;2023-04-15T13:57:55;15.20;40.00
72440;DHT22;60446;50.752;4.352;2023-04-15T14:00:27;15.10;40.80
72440;DHT22;60446;50.752;4.352;2023-04-15T14:03:01;15.20;40.60
72440;DHT22;60446;50.752;4.352;2023-04-15T14:05:38;15.10;39.70
72440;DHT22;60446;50.752;4.352;2023-04-15T14:08:10;14.80;39.90
72440;DHT22;60446;50.752;4.352;2023-04-15T14:10:45;14.90;40.30
72440;DHT22;60446;50.752;4.352;2023-04-15T14:13:21;15.00;40.90
72440;DHT22;60446;50.752;4.352;2023-04-15T14:15:56;14.90;41.00
72440;DHT22;60446;50.752;4.352;2023-04-15T14:18:33;15.10;40.10
72440;DHT22;60446;50.752;4.352;2023-04-15T14:21:04;15.30;37.80
72440;DHT22;60446;50.752;4.352;2023-04-15T14:23:37;15.30;38.50
72440;DHT22;60446;50.752;4.352;2023-04-15T14:26:19;15.40;39.30
72440;DHT22;60446;50.752;4.352;2023-04-15T14:28:49;15.20;38.30
72440;DHT22;60446;50.752;4.352;2023-04-15T14:31:19;15.20;38.90
72440;DHT22;60446;50.752;4.352;2023-04-15T14:33:51;15.00;39.70
72440;DHT22;60446;50.752;4.352;2023-04-15T14:36:30;15.20;41.60
72440;DHT22;60446;50.752;4.352;2023-04-15T14:38:58;15.80;40.80
72440;DHT22;60446;50.752;4.352;2023-04-15T14:41:28;16.30;39.60
72440;DHT22;60446;50.752;4.352;2023-04-15T14:44:03;16.10;40.00
72440;DHT22;60446;50.752;4.352;2023-04-15T14:46:40;15.70;40.50
72440;DHT22;60446;50.752;4.352;2023-04-15T14:49:11;16.00;40.30
72440;DHT22;60446;50.752;4.352;2023-04-15T14:51:39;15.90;41.70
72440;DHT22;60446;50.752;4.352;2023-04-15T14:54:12;16.20;40.70
72440;DHT22;60446;50.752;4.352;2023-04-15T14:56:45;16.70;39.90
72440;DHT22;60446;50.752;4.352;2023-04-15T14:59:15;17.40;38.10
72440;DHT22;60446;50.752;4.352;2023-04-15T15:01:48;18.00;37.00
72440;DHT22;60446;50.752;4.352;2023-04-15T15:04:21;18.40;36.40
72440;DHT22;60446;50.752;4.352;2023-04-15T15:06:52;18.60;36.10
72440;DHT22;60446;50.752;4.352;2023-04-15T15:09:28;18.10;35.30
72440;DHT22;60446;50.752;4.352;2023-04-15T15:12:06;17.70;35.70
72440;DHT22;60446;50.752;4.352;2023-04-15T15:14:40;16.50;37.60
72440;DHT22;60446;50.752;4.352;2023-04-15T15:17:10;15.70;38.30
72440;DHT22;60446;50.752;4.352;2023-04-15T15:19:41;15.30;39.10
72440;DHT22;60446;50.752;4.352;2023-04-15T15:22:18;15.10;40.40
72440;DHT22;60446;50.752;4.352;2023-04-15T15:24:47;15.30;40.70
72440;DHT22;60446;50.752;4.352;2023-04-15T15:27:19;16.20;40.70
72440;DHT22;60446;50.752;4.352;2023-04-15T15:29:54;15.80;41.20
72440;DHT22;60446;50.752;4.352;2023-04-15T15:32:23;15.40;42.80
72440;DHT22;60446;50.752;4.352;2023-04-15T15:35:04;16.10;42.30
72440;DHT22;60446;50.752;4.352;2023-04-15T15:37:38;16.50;42.00
72440;DHT22;60446;50.752;4.352;2023-04-15T15:40:19;16.80;42.80
72440;DHT22;60446;50.752;4.352;2023-04-15T15:42:49;16.20;41.80
72440;DHT22;60446;50.752;4.352;2023-04-15T15:45:17;16.20;43.20
72440;DHT22;60446;50.752;4.352;2023-04-15T15:47:44;16.10;44.90
72440;DHT22;60446;50.752;4.352;2023-04-15T15:50:12;16.10;45.40
72440;DHT22;60446;50.752;4.352;2023-04-15T15:52:43;15.90;46.60
72440;DHT22;60446;50.752;4.352;2023-04-15T15:55:10;16.10;45.60
72440;DHT22;60446;50.752;4.352;2023-04-15T15:57:37;15.90;45.60
72440;DHT22;60446;50.752;4.352;2023-04-15T16:00:05;15.30;47.10
72440;DHT22;60446;50.752;4.352;2023-04-15T16:02:38;15.10;49.00
72440;DHT22;60446;50.752;4.352;2023-04-15T16:05:09;14.90;49.80
72440;DHT22;60446;50.752;4.352;2023-04-15T16:07:39;14.80;50.70
72440;DHT22;60446;50.752;4.352;2023-04-15T16:10:06;15.10;50.40